Time;durP1;ratioP1;P1;durP2;ratioP2;P2;SDS_P1;SDS_P2;PMS_P1;PMS_P2;Temp;Humidity;BMP_temperature;BMP_pressure;BME280_temperature;BME280_humidity;BME280_pressure;Samples;Min_cycle;Max_cycle;Signal;HPM_P1;HPM_P2
2022/05/18 00:00:27;;;;;;;10.05;6.22;;;19.00;99.90;;;;;;5085454;28;20165;-75
2022/05/18 00:02:59;;;;;;;11.82;6.40;;;18.90;99.90;;;;;;5090237;28;20035;-75
2022/05/18 00:05:25;;;;;;;10.23;6.68;;;18.90;99.90;;;;;;5086272;28;20040;-75
2022/05/18 00:07:51;;;;;;;11.52;6.53;;;18.90;99.90;;;;;;5087687;28;20036;-75
2022/05/18 00:10:17;;;;;;;8.52;6.28;;;18.80;99.90;;;;;;5090076;28;20043;-74
2022/05/18 00:12:50;;;;;;;10.77;6.60;;;18.80;99.90;;;;;;5089298;28;20419;-75
2022/05/18 00:15:19;;;;;;;10.75;6.80;;;18.70;99.90;;;;;;5085160;28;20048;-75
2022/05/18 00:17:45;;;;;;;8.30;6.10;;;18.80;99.90;;;;;;5093791;28;20087;-74
2022/05/18 00:20:12;;;;;;;9.55;6.53;;;18.70;99.90;;;;;;5083889;28;20500;-74
2022/05/18 00:23:07;;;;;;;8.57;6.43;;;18.70;99.90;;;;;;5071815;28;20105;-74
2022/05/18 00:25:39;;;;;;;10.90;6.68;;;18.70;99.90;;;;;;5080388;28;20488;-74
2022/05/18 00:28:05;;;;;;;9.57;6.60;;;18.60;99.90;;;;;;5084263;28;20047;-75
2022/05/18 00:30:31;;;;;;;9.45;6.28;;;18.60;99.90;;;;;;5089113;28;20229;-74
2022/05/18 00:33:03;;;;;;;11.80;6.80;;;18.60;99.90;;;;;;5088562;28;20131;-74
2022/05/18 00:35:29;;;;;;;10.68;6.70;;;18.50;99.90;;;;;;5090557;28;20036;-74
2022/05/18 00:37:57;;;;;;;9.88;6.13;;;18.50;99.90;;;;;;5081158;28;20590;-74
2022/05/18 00:40:23;;;;;;;9.15;6.55;;;18.50;99.90;;;;;;5086993;28;20124;-74
2022/05/18 00:42:48;;;;;;;8.93;6.63;;;18.50;99.90;;;;;;5093688;28;20559;-75
2022/05/18 00:45:15;;;;;;;9.80;6.15;;;18.50;99.90;;;;;;5091479;28;20043;-74
2022/05/18 00:47:41;;;;;;;9.48;6.70;;;18.50;99.90;;;;;;5090635;28;20044;-74
2022/05/18 00:50:22;;;;;;;11.00;6.50;;;18.40;99.90;;;;;;5101393;28;20043;-75
2022/05/18 00:53:09;;;;;;;9.88;6.78;;;18.50;99.90;;;;;;5083688;28;20040;-74
2022/05/18 00:55:37;;;;;;;;;;;18.40;99.90;;;;;;5084902;28;20048;-75
2022/05/18 00:58:25;;;;;;;11.48;6.22;;;18.30;99.90;;;;;;5089125;28;20295;-74
2022/05/18 01:00:54;;;;;;;8.57;5.97;;;18.40;99.90;;;;;;5084931;28;20115;-74
2022/05/18 01:03:22;;;;;;;12.88;6.57;;;18.30;99.90;;;;;;5087507;28;20466;-74
2022/05/18 01:05:54;;;;;;;9.38;6.60;;;18.30;99.90;;;;;;5095753;28;20097;-74
2022/05/18 01:08:29;;;;;;;10.65;6.82;;;18.30;99.90;;;;;;5097282;28;20104;-75
2022/05/18 01:10:55;;;;;;;12.35;6.70;;;18.30;99.90;;;;;;5085950;28;20543;-75
2022/05/18 01:13:20;;;;;;;8.18;6.03;;;18.20;99.90;;;;;;5080915;28;20135;-75
2022/05/18 01:15:46;;;;;;;10.55;6.22;;;18.30;99.90;;;;;;5093234;28;20044;-75
2022/05/18 01:18:13;;;;;;;10.20;6.65;;;18.30;99.90;;;;;;5087271;28;20044;-75
2022/05/18 01:20:41;;;;;;;9.88;6.03;;;18.20;99.90;;;;;;5086401;28;20059;-75
2022/05/18 01:23:40;;;;;;;8.27;5.93;;;18.20;99.90;;;;;;5090626;28;20174;-75
2022/05/18 01:26:30;;;;;;;9.35;5.90;;;18.20;99.90;;;;;;5088336;28;20039;-75
2022/05/18 01:28:58;;;;;;;11.82;6.22;;;18.10;99.90;;;;;;5087045;28;20531;-74
2022/05/18 01:32:06;;;;;;;6.97;5.57;;;18.10;99.90;;;;;;5084414;28;20500;-74
2022/05/18 01:34:37;;;;;;;7.95;5.85;;;18.20;99.90;;;;;;5081617;28;20044;-74
2022/05/18 01:37:03;;;;;;;8.60;6.60;;;18.10;99.90;;;;;;5084443;28;20048;-74
2022/05/18 01:39:36;;;;;;;9.13;5.95;;;18.10;99.90;;;;;;5086742;28;20036;-75
2022/05/18 01:42:43;;;;;;;11.00;6.18;;;18.10;99.90;;;;;;5088024;28;20048;-74
2022/05/18 01:45:09;;;;;;;7.55;5.75;;;18.10;99.90;;;;;;5037144;28;20056;-75
2022/05/18 01:47:37;;;;;;;9.85;6.30;;;18.00;99.90;;;;;;5093510;28;20061;-75
2022/05/18 01:50:06;;;;;;;10.77;5.90;;;18.10;99.90;;;;;;5084202;28;20089;-75
2022/05/18 01:52:34;;;;;;;11.02;6.20;;;18.00;99.90;;;;;;5096718;28;20048;-75
2022/05/18 01:55:01;;;;;;;10.02;5.93;;;18.00;99.90;;;;;;5106120;28;20044;-74
2022/05/18 01:57:27;;;;;;;7.57;6.20;;;18.00;99.90;;;;;;5105149;28;20135;-74
2022/05/18 01:59:52;;;;;;;7.53;5.68;;;17.90;99.90;;;;;;5089270;28;20729;-74
2022/05/18 02:02:18;;;;;;;8.52;6.05;;;17.90;99.90;;;;;;5087171;28;20135;-75
2022/05/18 02:04:44;;;;;;;9.25;6.20;;;17.90;99.90;;;;;;5085272;28;20499;-74
2022/05/18 02:07:11;;;;;;;10.05;5.97;;;17.90;99.90;;;;;;5105333;28;20100;-74
2022/05/18 02:09:37;;;;;;;9.88;6.40;;;17.90;99.90;;;;;;5087257;28;20056;-75
2022/05/18 02:12:05;;;;;;;9.10;6.15;;;17.90;99.90;;;;;;5086797;28;20062;-75
2022/05/18 02:14:30;;;;;;;;;;;17.90;99.90;;;;;;5093064;28;20043;-74
2022/05/18 02:16:56;;;;;;;9.32;6.07;;;17.80;99.90;;;;;;5098731;28;20443;-74
2022/05/18 02:19:21;;;;;;;8.27;6.18;;;17.80;99.90;;;;;;5099232;28;20126;-73
2022/05/18 02:21:47;;;;;;;8.32;5.88;;;17.80;99.90;;;;;;5106596;28;20039;-75
2022/05/18 02:24:13;;;;;;;13.55;6.57;;;17.80;99.90;;;;;;5105342;28;20036;-75
2022/05/18 02:26:38;;;;;;;10.85;6.82;;;17.70;99.90;;;;;;5091802;28;20083;-74
2022/05/18 02:29:05;;;;;;;10.75;6.45;;;17.70;99.90;;;;;;5102177;28;20039;-75
2022/05/18 02:31:30;;;;;;;10.23;6.43;;;17.70;99.90;;;;;;5111167;28;20036;-75
2022/05/18 02:33:56;;;;;;;8.98;6.30;;;17.60;99.90;;;;;;5094545;28;20052;-75
2022/05/18 02:36:22;;;;;;;9.77;6.43;;;17.60;99.90;;;;;;5089809;28;20074;-75
2022/05/18 02:38:48;;;;;;;9.73;6.55;;;17.60;99.90;;;;;;5092579;28;20395;-75
2022/05/18 02:41:13;;;;;;;10.77;6.47;;;17.60;99.90;;;;;;5107380;28;20052;-75
2022/05/18 02:43:39;;;;;;;10.23;7.00;;;17.60;99.90;;;;;;5102105;28;20132;-74
2022/05/18 02:46:13;;;;;;;9.52;6.68;;;17.60;99.90;;;;;;5091162;28;20047;-75
2022/05/18 02:48:40;;;;;;;12.75;7.35;;;17.50;99.90;;;;;;5096228;28;20059;-74
2022/05/18 02:51:07;;;;;;;10.20;7.00;;;17.40;99.90;;;;;;5101537;28;20024;-74
2022/05/18 02:53:34;;;;;;;9.43;7.10;;;17.40;99.90;;;;;;5091084;28;20388;-75
2022/05/18 02:56:08;;;;;;;9.43;7.03;;;17.40;99.90;;;;;;5092483;28;20052;-75
2022/05/18 02:58:40;;;;;;;10.45;6.97;;;17.40;99.90;;;;;;5088371;28;20396;-75
2022/05/18 03:01:21;;;;;;;10.00;7.07;;;17.40;99.90;;;;;;5091769;28;20495;-75
2022/05/18 03:03:47;;;;;;;10.70;7.47;;;17.30;99.90;;;;;;5109992;28;20414;-75
2022/05/18 03:06:15;;;;;;;8.75;6.60;;;17.30;99.90;;;;;;5101348;28;20398;-75
2022/05/18 03:08:43;;;;;;;10.18;7.28;;;17.30;99.90;;;;;;5104805;28;20040;-75
2022/05/18 03:11:09;;;;;;;9.00;6.95;;;17.30;99.90;;;;;;5103206;28;20753;-75
2022/05/18 03:13:35;;;;;;;11.00;7.70;;;17.20;99.90;;;;;;5110292;28;20397;-75
2022/05/18 03:16:01;;;;;;;11.88;7.63;;;17.20;99.90;;;;;;5112326;28;20047;-75
2022/05/18 03:18:27;;;;;;;10.93;7.40;;;17.20;99.90;;;;;;5096660;28;20035;-75
2022/05/18 03:23:37;;;;;;;9.63;7.15;;;17.10;99.90;;;;;;5107848;28;20119;-75
2022/05/18 03:26:19;;;;;;;10.23;7.85;;;17.10;99.90;;;;;;5109125;28;20453;-75
2022/05/18 03:28:46;;;;;;;14.18;7.65;;;17.10;99.90;;;;;;5090871;28;20491;-75
2022/05/18 03:31:12;;;;;;;;;;;17.00;99.90;;;;;;5089425;28;20515;-75
2022/05/18 03:33:38;;;;;;;10.88;7.68;;;17.00;99.90;;;;;;5099180;28;19980;-75
2022/05/18 03:36:05;;;;;;;10.70;7.88;;;17.00;99.90;;;;;;5110447;28;20127;-75
2022/05/18 03:38:31;;;;;;;10.35;7.40;;;17.00;99.90;;;;;;5105979;28;20379;-74
2022/05/18 03:40:57;;;;;;;11.53;8.43;;;16.90;99.90;;;;;;5087702;28;20036;-74
2022/05/18 03:43:23;;;;;;;10.02;7.90;;;16.90;99.90;;;;;;5089828;28;20040;-74
2022/05/18 03:45:48;;;;;;;9.85;8.20;;;16.90;99.90;;;;;;5089840;28;20052;-74
2022/05/18 03:48:16;;;;;;;10.73;8.05;;;16.90;99.90;;;;;;5089417;28;20503;-75
2022/05/18 03:50:44;;;;;;;10.27;7.88;;;16.90;99.90;;;;;;5097515;28;20114;-75
2022/05/18 03:53:11;;;;;;;9.90;8.05;;;16.80;99.90;;;;;;5110059;28;20472;-75
2022/05/18 03:55:39;;;;;;;11.53;8.30;;;16.80;99.90;;;;;;5108990;28;20044;-75
2022/05/18 03:58:09;;;;;;;10.90;8.13;;;16.80;99.90;;;;;;5101654;28;20430;-75
2022/05/18 04:00:36;;;;;;;12.45;8.45;;;16.90;99.90;;;;;;5088621;28;20056;-76
2022/05/18 04:03:02;;;;;;;11.13;8.60;;;16.80;99.90;;;;;;5089517;28;20105;-77
2022/05/18 04:05:30;;;;;;;12.25;8.13;;;16.80;99.90;;;;;;5090004;28;20040;-76
2022/05/18 04:07:55;;;;;;;;;;;16.80;99.90;;;;;;5091237;28;20040;-76
2022/05/18 04:10:21;;;;;;;11.13;9.63;;;16.80;99.90;;;;;;5095735;28;19920;-77
2022/05/18 04:12:47;;;;;;;12.30;8.77;;;16.70;99.90;;;;;;5102401;28;20043;-76
2022/05/18 04:15:16;;;;;;;10.85;9.15;;;16.70;99.90;;;;;;5109444;28;20046;-76
2022/05/18 04:17:44;;;;;;;13.50;9.00;;;16.70;99.90;;;;;;5110187;28;20056;-76
2022/05/18 04:20:12;;;;;;;12.30;8.77;;;16.80;99.90;;;;;;5101795;28;20106;-76
2022/05/18 04:22:37;;;;;;;;;;;16.80;99.90;;;;;;5110786;28;20043;-75
2022/05/18 04:25:04;;;;;;;10.70;8.43;;;16.70;99.90;;;;;;5107501;28;19919;-74
2022/05/18 04:27:31;;;;;;;14.73;9.40;;;16.80;99.90;;;;;;5103191;28;20055;-75
2022/05/18 04:29:57;;;;;;;10.88;8.82;;;16.80;99.90;;;;;;5107025;28;20297;-75
2022/05/18 04:32:23;;;;;;;11.00;9.25;;;16.80;99.90;;;;;;5106787;28;20035;-75
2022/05/18 04:34:58;;;;;;;11.20;9.55;;;16.90;99.90;;;;;;5103126;28;20043;-75
2022/05/18 04:37:24;;;;;;;10.02;9.00;;;16.90;99.90;;;;;;5107972;28;20047;-75
2022/05/18 04:39:49;;;;;;;11.68;9.50;;;17.00;99.90;;;;;;5097067;28;20087;-74
2022/05/18 04:42:16;;;;;;;15.35;9.88;;;17.00;99.90;;;;;;5088077;28;20134;-74
2022/05/18 04:44:44;;;;;;;12.73;10.60;;;17.10;99.90;;;;;;5093297;28;20512;-74
2022/05/18 04:47:10;;;;;;;13.15;10.60;;;17.10;99.90;;;;;;5109957;28;20092;-74
2022/05/18 04:49:35;;;;;;;12.82;10.45;;;17.20;99.90;;;;;;5086688;28;20770;-74
2022/05/18 04:52:01;;;;;;;14.23;10.30;;;17.20;99.90;;;;;;5089736;28;20100;-75
2022/05/18 04:54:27;;;;;;;12.77;10.32;;;17.20;99.90;;;;;;5089742;28;20056;-74
2022/05/18 04:56:53;;;;;;;12.43;10.85;;;17.20;99.90;;;;;;5088542;28;20137;-75
2022/05/18 04:59:18;;;;;;;13.63;10.30;;;17.30;99.90;;;;;;5086438;28;20036;-74
2022/05/18 05:01:44;;;;;;;13.55;10.30;;;17.30;99.90;;;;;;5090320;28;20122;-74
2022/05/18 05:04:10;;;;;;;13.20;10.75;;;17.40;99.90;;;;;;5104477;28;20058;-74
2022/05/18 05:06:37;;;;;;;14.95;11.43;;;17.40;99.90;;;;;;5110227;28;20055;-74
2022/05/18 05:09:03;;;;;;;12.60;10.70;;;17.50;99.90;;;;;;5103919;28;20442;-74
2022/05/18 05:11:29;;;;;;;12.32;10.50;;;17.60;99.90;;;;;;5086611;28;20040;-74
2022/05/18 05:13:54;;;;;;;14.02;11.73;;;17.60;99.90;;;;;;5088937;28;20101;-74
2022/05/18 05:16:20;;;;;;;13.60;11.98;;;17.60;99.90;;;;;;5088699;28;20047;-75
2022/05/18 05:18:45;;;;;;;13.13;11.18;;;17.70;99.90;;;;;;5093950;28;20039;-74
2022/05/18 05:21:11;;;;;;;16.48;11.27;;;17.70;99.90;;;;;;5088261;28;20109;-74
2022/05/18 05:23:37;;;;;;;13.73;10.77;;;17.80;99.90;;;;;;5089625;28;20044;-74
2022/05/18 05:26:06;;;;;;;15.48;11.70;;;17.80;99.90;;;;;;5088939;28;20044;-74
2022/05/18 05:28:32;;;;;;;14.98;11.95;;;17.90;99.90;;;;;;5102353;28;20558;-76
2022/05/18 05:31:06;;;;;;;13.93;11.68;;;17.90;99.90;;;;;;5105692;28;20122;-73
2022/05/18 05:33:32;;;;;;;13.70;11.85;;;18.00;99.90;;;;;;5109165;28;20040;-74
2022/05/18 05:35:58;;;;;;;15.40;11.95;;;18.00;99.90;;;;;;5080743;28;20407;-74
2022/05/18 05:38:24;;;;;;;15.18;12.50;;;18.00;99.90;;;;;;5095129;28;20054;-75
2022/05/18 05:40:50;;;;;;;15.68;12.18;;;18.10;99.90;;;;;;5095458;28;20495;-75
2022/05/18 05:43:16;;;;;;;14.10;12.60;;;18.20;99.90;;;;;;5087051;28;20047;-75
2022/05/18 05:45:42;;;;;;;15.27;12.75;;;18.20;99.90;;;;;;5087443;28;20050;-74
2022/05/18 05:48:09;;;;;;;13.27;11.88;;;18.30;99.90;;;;;;5108119;28;20126;-75
2022/05/18 05:50:35;;;;;;;;;;;18.40;99.90;;;;;;5108417;28;20531;-75
2022/05/18 05:53:01;;;;;;;14.05;12.55;;;18.40;99.90;;;;;;5089626;28;19959;-74
2022/05/18 05:55:28;;;;;;;14.52;12.95;;;18.50;99.90;;;;;;5087932;28;20056;-78
2022/05/18 05:57:55;;;;;;;15.77;13.00;;;18.60;99.90;;;;;;5089155;28;20079;-75
2022/05/18 06:00:24;;;;;;;18.05;13.93;;;18.70;99.90;;;;;;5087686;28;20105;-75
2022/05/18 06:02:50;;;;;;;16.95;14.38;;;18.70;99.90;;;;;;5088383;28;20135;-75
2022/05/18 06:05:17;;;;;;;18.20;14.00;;;18.80;99.90;;;;;;5102426;28;20127;-75
2022/05/18 06:07:43;;;;;;;19.23;14.05;;;18.90;99.90;;;;;;5106135;28;20052;-75
2022/05/18 06:10:10;;;;;;;17.77;13.90;;;18.90;99.90;;;;;;5107903;28;20078;-75
2022/05/18 06:12:38;;;;;;;16.85;13.60;;;19.00;99.90;;;;;;5102435;28;20410;-74
2022/05/18 06:15:06;;;;;;;13.93;12.48;;;19.10;99.90;;;;;;5100560;28;20036;-75
2022/05/18 06:17:32;;;;;;;18.77;14.40;;;19.20;99.90;;;;;;5099795;28;20255;-77
2022/05/18 06:19:58;;;;;;;14.30;12.73;;;19.30;99.90;;;;;;5109154;28;20087;-78
2022/05/18 06:22:25;;;;;;;15.27;12.85;;;19.40;99.90;;;;;;5086284;28;20083;-76
2022/05/18 06:24:52;;;;;;;16.92;13.45;;;19.40;99.90;;;;;;5088772;28;20052;-76
2022/05/18 06:27:21;;;;;;;16.05;12.65;;;19.60;99.90;;;;;;5087146;28;20036;-76
2022/05/18 06:29:49;;;;;;;15.65;12.57;;;19.60;99.90;;;;;;5092359;28;20047;-76
2022/05/18 06:32:16;;;;;;;14.52;12.07;;;19.70;99.90;;;;;;5083605;28;20123;-76
2022/05/18 06:34:42;;;;;;;13.15;11.65;;;19.80;99.90;;;;;;5100048;28;20031;-75
2022/05/18 06:37:08;;;;;;;17.33;11.10;;;19.80;99.90;;;;;;5107993;28;20054;-76
2022/05/18 06:39:33;;;;;;;14.38;11.15;;;19.90;99.90;;;;;;5108426;28;20415;-76
2022/05/18 06:41:59;;;;;;;17.13;13.18;;;20.00;99.90;;;;;;5088155;28;20048;-76
2022/05/18 06:44:25;;;;;;;16.27;12.48;;;20.00;99.90;;;;;;5088118;28;20083;-76
2022/05/18 06:46:52;;;;;;;18.35;12.98;;;20.10;99.90;;;;;;5086832;28;20044;-76
2022/05/18 06:49:18;;;;;;;23.48;14.95;;;20.20;99.90;;;;;;5087149;28;20040;-76
2022/05/18 06:51:46;;;;;;;14.20;10.77;;;20.30;99.90;;;;;;5100829;28;20050;-76
2022/05/18 06:54:13;;;;;;;14.07;11.23;;;20.30;99.90;;;;;;5097801;28;20464;-76
2022/05/18 06:56:41;;;;;;;13.10;9.85;;;20.40;99.90;;;;;;5089175;28;20120;-76
2022/05/18 06:59:07;;;;;;;12.45;10.73;;;20.50;99.90;;;;;;5108259;28;20045;-76
2022/05/18 07:01:33;;;;;;;16.00;10.15;;;20.60;99.90;;;;;;5108513;28;20086;-76
2022/05/18 07:03:59;;;;;;;16.80;11.05;;;20.70;99.90;;;;;;5106274;28;20043;-76
2022/05/18 07:06:28;;;;;;;13.90;10.55;;;20.80;99.90;;;;;;5100871;28;20403;-77
2022/05/18 07:08:55;;;;;;;16.60;11.18;;;20.80;99.90;;;;;;5110544;28;20042;-75
2022/05/18 07:11:22;;;;;;;16.88;11.65;;;20.90;99.90;;;;;;5109688;28;20112;-77
2022/05/18 07:13:51;;;;;;;20.70;12.23;;;21.00;99.90;;;;;;5102830;28;20043;-75
2022/05/18 07:16:18;;;;;;;17.15;10.50;;;21.00;99.90;;;;;;5101505;28;20079;-79
2022/05/18 07:18:45;;;;;;;16.27;11.13;;;21.20;99.90;;;;;;5093367;28;20074;-79
2022/05/18 07:21:11;;;;;;;74.10;48.95;;;21.30;99.90;;;;;;5089470;28;20047;-77
2022/05/18 07:23:37;;;;;;;41.88;28.48;;;21.40;99.90;;;;;;5086134;28;20153;-79
2022/05/18 07:26:03;;;;;;;18.75;12.13;;;21.40;99.90;;;;;;5089696;28;20051;-78
2022/05/18 07:28:29;;;;;;;12.98;9.70;;;21.50;99.90;;;;;;5090222;28;20168;-77
2022/05/18 07:30:54;;;;;;;11.45;8.75;;;21.60;99.90;;;;;;5107567;28;20043;-78
2022/05/18 07:33:22;;;;;;;15.77;12.13;;;21.70;99.90;;;;;;5097168;28;20052;-77
2022/05/18 07:35:49;;;;;;;42.30;29.25;;;21.80;99.90;;;;;;5088965;28;20058;-73
2022/05/18 07:38:14;;;;;;;21.80;17.80;;;21.80;99.90;;;;;;5087334;27;20487;-74
2022/05/18 07:40:40;;;;;;;38.80;31.30;;;21.90;99.90;;;;;;5108113;28;20058;-73
2022/05/18 07:43:06;;;;;;;18.08;13.68;;;21.90;99.90;;;;;;5111629;28;20045;-74
2022/05/18 07:45:33;;;;;;;33.42;26.55;;;21.90;99.90;;;;;;5111280;28;20040;-73
2022/05/18 07:47:59;;;;;;;16.13;10.80;;;22.10;99.90;;;;;;5102535;28;20046;-73
2022/05/18 07:50:25;;;;;;;22.23;14.90;;;22.20;99.90;;;;;;5105219;28;20036;-73
2022/05/18 07:52:52;;;;;;;24.10;18.03;;;22.30;99.90;;;;;;5088813;28;20051;-73
2022/05/18 07:55:19;;;;;;;24.77;17.13;;;22.40;99.90;;;;;;5091768;28;20106;-72
2022/05/18 07:57:44;;;;;;;18.65;14.07;;;22.50;99.90;;;;;;5104832;28;20051;-72
2022/05/18 08:00:12;;;;;;;26.52;17.75;;;22.60;99.90;;;;;;5095963;28;20402;-73
2022/05/18 08:02:41;;;;;;;26.60;16.80;;;22.70;99.90;;;;;;5092721;28;20043;-73
2022/05/18 08:05:06;;;;;;;16.02;11.23;;;22.80;99.90;;;;;;5088091;28;20093;-73
2022/05/18 08:07:32;;;;;;;14.45;9.10;;;23.00;99.90;;;;;;5091349;28;20043;-72
2022/05/18 08:15:27;;;;;;;10.90;8.95;;;23.20;99.90;;;;;;5081365;28;20079;-73
2022/05/18 08:17:53;;;;;;;14.05;11.30;;;23.30;99.90;;;;;;5094526;28;20567;-73
2022/05/18 08:20:21;;;;;;;16.08;10.98;;;23.50;99.90;;;;;;5084626;28;20047;-72
2022/05/18 08:22:47;;;;;;;19.73;13.52;;;23.50;99.90;;;;;;5085469;28;20051;-73
2022/05/18 08:25:16;;;;;;;23.50;15.70;;;23.60;99.90;;;;;;5078031;28;20039;-72
2022/05/18 08:27:44;;;;;;;21.00;14.60;;;23.60;99.90;;;;;;5082004;28;20031;-72
2022/05/18 08:30:11;;;;;;;13.45;10.45;;;23.70;99.90;;;;;;5086478;28;20247;-73
2022/05/18 08:32:37;;;;;;;16.10;10.48;;;23.70;99.90;;;;;;5081769;28;20052;-72
2022/05/18 08:35:04;;;;;;;12.57;9.27;;;23.70;99.90;;;;;;5088182;28;20042;-76
2022/05/18 08:37:36;;;;;;;17.13;14.00;;;23.80;99.90;;;;;;5095076;28;20040;-74
2022/05/18 08:40:02;;;;;;;18.80;11.93;;;23.80;99.90;;;;;;5098897;28;20135;-73
2022/05/18 08:42:27;;;;;;;13.63;10.82;;;23.90;99.90;;;;;;5092560;28;20039;-73
2022/05/18 08:44:55;;;;;;;11.60;9.10;;;24.00;99.90;;;;;;5093632;28;20043;-73
2022/05/18 08:47:40;;;;;;;13.65;8.40;;;24.10;99.90;;;;;;5089050;28;20427;-75
2022/05/18 08:50:13;;;;;;;12.00;7.45;;;24.20;99.90;;;;;;5090298;28;20051;-75
2022/05/18 08:53:16;;;;;;;9.90;6.35;;;24.30;99.90;;;;;;5104117;28;20054;-75
2022/05/18 08:55:54;;;;;;;7.03;5.70;;;24.40;99.90;;;;;;5092192;28;20615;-76
2022/05/18 08:58:29;;;;;;;8.25;5.50;;;24.40;99.90;;;;;;5107123;28;20071;-77
2022/05/18 09:01:06;;;;;;;11.73;6.13;;;24.50;99.90;;;;;;5095734;28;20036;-75
2022/05/18 09:03:42;;;;;;;9.48;6.15;;;24.60;99.90;;;;;;5097998;28;20123;-75
2022/05/18 09:06:12;;;;;;;9.40;6.55;;;24.70;99.90;;;;;;5088372;28;20093;-74
2022/05/18 09:08:43;;;;;;;12.38;7.47;;;24.70;99.90;;;;;;5093768;28;20036;-76
2022/05/18 09:11:22;;;;;;;8.73;5.53;;;24.80;99.90;;;;;;5105583;28;20040;-76
2022/05/18 09:13:48;;;;;;;10.85;7.00;;;24.80;99.90;;;;;;5102004;28;20083;-76
2022/05/18 09:16:26;;;;;;;10.60;5.93;;;24.90;99.90;;;;;;5086710;28;20105;-76
2022/05/18 09:19:11;;;;;;;10.38;6.53;;;25.00;99.90;;;;;;5089941;28;20039;-77
2022/05/18 09:21:43;;;;;;;10.40;6.03;;;25.10;99.90;;;;;;5107913;28;20149;-76
2022/05/18 09:24:35;;;;;;;11.88;6.60;;;25.10;99.90;;;;;;5107612;28;20059;-75
2022/05/18 09:27:35;;;;;;;11.10;6.13;;;25.20;99.90;;;;;;5103843;28;20165;-75
2022/05/18 09:30:24;;;;;;;9.20;6.60;;;25.20;99.90;;;;;;5078956;28;20142;-76
2022/05/18 09:33:07;;;;;;;11.55;6.28;;;25.20;99.90;;;;;;5090450;28;20519;-76
2022/05/18 09:35:52;;;;;;;13.10;7.00;;;25.30;99.90;;;;;;5086922;28;20044;-77
2022/05/18 09:38:22;;;;;;;8.70;6.72;;;25.40;99.90;;;;;;5091113;28;20371;-73
2022/05/18 09:40:50;;;;;;;15.02;7.82;;;25.50;99.90;;;;;;5094258;28;20044;-75
2022/05/18 09:43:49;;;;;;;15.48;11.88;;;25.50;99.90;;;;;;5089836;28;20439;-75
2022/05/18 09:46:21;;;;;;;11.65;8.93;;;25.60;99.90;;;;;;5024086;28;20113;-80
2022/05/18 09:49:12;;;;;;;11.10;7.15;;;25.80;99.90;;;;;;5108196;28;20093;-76
2022/05/18 09:51:38;;;;;;;8.82;6.78;;;25.80;99.90;;;;;;5096513;28;20045;-75
2022/05/18 09:54:07;;;;;;;9.68;7.10;;;25.90;99.90;;;;;;5085004;28;20043;-74
2022/05/18 09:56:40;;;;;;;12.93;6.88;;;25.90;99.90;;;;;;5095996;28;20189;-76
2022/05/18 09:59:16;;;;;;;10.30;6.47;;;26.00;99.90;;;;;;5101092;28;20427;-75
2022/05/18 10:07:30;;;;;;;8.02;6.10;;;26.20;99.90;;;;;;5101147;28;20053;-76
2022/05/18 10:10:08;;;;;;;10.57;6.63;;;26.30;99.90;;;;;;5097671;28;20091;-75
2022/05/18 10:12:47;;;;;;;9.88;6.47;;;26.30;99.90;;;;;;5109105;28;20043;-76
2022/05/18 10:15:23;;;;;;;10.00;6.68;;;26.40;99.90;;;;;;5105959;28;20055;-75
2022/05/18 10:17:53;;;;;;;11.70;6.05;;;26.40;99.90;;;;;;5105279;28;20074;-75
2022/05/18 10:20:29;;;;;;;10.27;6.47;;;26.50;99.90;;;;;;5092510;28;20083;-79
2022/05/18 10:22:57;;;;;;;9.52;5.93;;;26.70;99.90;;;;;;5097734;28;20078;-74
2022/05/18 10:25:33;;;;;;;8.60;5.80;;;26.80;99.90;;;;;;5105696;28;20087;-75
2022/05/18 10:28:09;;;;;;;11.05;6.70;;;26.90;99.80;;;;;;5101005;28;20044;-75
2022/05/18 10:30:37;;;;;;;11.68;6.55;;;27.00;99.90;;;;;;5096602;28;20047;-74
2022/05/18 10:33:19;;;;;;;7.65;5.15;;;27.00;98.90;;;;;;5102462;28;20521;-76
2022/05/18 10:35:53;;;;;;;10.05;7.18;;;27.00;99.00;;;;;;5086975;28;20044;-74
2022/05/18 10:38:31;;;;;;;10.70;7.13;;;27.10;98.90;;;;;;5087567;28;20040;-75
2022/05/18 10:41:11;;;;;;;11.02;7.80;;;27.20;98.40;;;;;;5066742;28;20051;-74
2022/05/18 10:43:42;;;;;;;10.05;6.68;;;27.20;97.80;;;;;;5100281;28;20100;-75
2022/05/18 10:46:42;;;;;;;9.50;6.35;;;27.30;99.00;;;;;;5083193;28;20060;-74
2022/05/18 10:49:13;;;;;;;10.57;5.70;;;27.30;98.80;;;;;;5102824;28;20132;-80
2022/05/18 10:51:38;;;;;;;9.73;5.60;;;27.30;98.40;;;;;;5089876;28;20494;-74
2022/05/18 10:54:26;;;;;;;10.60;7.00;;;27.30;97.90;;;;;;5091780;28;20047;-73
2022/05/18 10:57:07;;;;;;;9.75;5.93;;;27.30;97.20;;;;;;5082289;28;20575;-75
2022/05/18 10:59:42;;;;;;;11.18;5.63;;;27.40;97.00;;;;;;5099582;28;20070;-75
2022/05/18 11:02:27;;;;;;;8.95;4.57;;;27.10;95.90;;;;;;5100751;28;20112;-72
2022/05/18 11:05:00;;;;;;;7.60;4.65;;;27.00;97.60;;;;;;5083699;28;20040;-73
2022/05/18 11:07:28;;;;;;;7.22;4.43;;;27.10;97.30;;;;;;5086543;28;20069;-72
2022/05/18 11:09:55;;;;;;;10.90;6.13;;;27.20;95.90;;;;;;5092951;28;20435;-73
2022/05/18 11:12:28;;;;;;;10.18;5.18;;;27.30;96.10;;;;;;5107457;28;20043;-73
2022/05/18 11:15:09;;;;;;;6.70;5.28;;;27.40;97.00;;;;;;5092107;28;20093;-72
2022/05/18 11:18:08;;;;;;;10.95;6.18;;;27.60;97.50;;;;;;5090803;28;20047;-72
2022/05/18 11:20:55;;;;;;;9.13;5.57;;;27.70;94.60;;;;;;5085811;28;20552;-74
2022/05/18 11:23:34;;;;;;;;;;;27.70;96.10;;;;;;5088221;28;20043;-72
2022/05/18 11:26:40;;;;;;;13.73;6.47;;;27.80;98.50;;;;;;5089470;28;19946;-72
2022/05/18 11:29:35;;;;;;;7.40;5.43;;;28.00;97.50;;;;;;5086741;28;20055;-73
2022/05/18 11:32:27;;;;;;;6.50;4.35;;;28.10;96.80;;;;;;5079606;28;20052;-73
2022/05/18 11:35:20;;;;;;;8.55;4.10;;;28.20;97.00;;;;;;5087062;28;20089;-73
2022/05/18 11:38:17;;;;;;;7.13;3.83;;;28.30;92.40;;;;;;5092738;28;20040;-72
2022/05/18 11:41:17;;;;;;;8.02;4.45;;;28.30;90.80;;;;;;5088259;28;20043;-73
2022/05/18 11:44:04;;;;;;;8.45;4.15;;;28.30;93.10;;;;;;5090391;28;20562;-71
2022/05/18 11:46:58;;;;;;;5.22;3.42;;;28.30;92.80;;;;;;5089048;28;20112;-75
2022/05/18 11:49:28;;;;;;;6.50;3.38;;;28.40;91.50;;;;;;5080814;28;20044;-76
2022/05/18 11:52:15;;;;;;;5.75;2.38;;;28.50;86.60;;;;;;5095463;28;20202;-73
2022/05/18 11:55:29;;;;;;;9.93;2.67;;;28.50;75.00;;;;;;5106416;28;20920;-74
2022/05/18 11:58:10;;;;;;;5.80;2.10;;;28.50;75.70;;;;;;5080040;28;20139;-75
2022/05/18 12:01:04;;;;;;;5.43;2.90;;;28.50;74.80;;;;;;5105055;28;20054;-74
2022/05/18 12:03:38;;;;;;;5.28;3.13;;;28.50;76.40;;;;;;5087864;28;20044;-73
2022/05/18 12:06:29;;;;;;;10.45;3.47;;;28.60;73.90;;;;;;5093935;28;20039;-73
2022/05/18 12:09:04;;;;;;;8.65;3.53;;;28.60;71.30;;;;;;5103896;28;20054;-71
2022/05/18 12:11:35;;;;;;;7.32;3.00;;;28.70;75.20;;;;;;5103473;28;20055;-72
2022/05/18 12:14:27;;;;;;;5.45;2.95;;;28.70;69.00;;;;;;5095187;28;20045;-72
2022/05/18 12:17:23;;;;;;;6.53;2.88;;;28.70;70.80;;;;;;5091582;28;20040;-72
2022/05/18 12:20:36;;;;;;;7.07;3.50;;;28.70;72.10;;;;;;5102559;28;20050;-72
2022/05/18 12:23:06;;;;;;;8.93;3.50;;;28.80;66.60;;;;;;5078224;28;20052;-74
2022/05/18 12:25:33;;;;;;;6.82;3.63;;;28.80;68.40;;;;;;5095948;28;20044;-74
2022/05/18 12:28:02;;;;;;;7.85;3.92;;;28.90;65.40;;;;;;5092947;28;20728;-77
2022/05/18 12:30:34;;;;;;;11.68;4.38;;;28.90;63.20;;;;;;5105045;28;20054;-73
2022/05/18 12:33:02;;;;;;;8.30;4.10;;;28.80;65.60;;;;;;5094541;28;20036;-71
2022/05/18 12:35:47;;;;;;;7.78;3.80;;;28.80;63.50;;;;;;5089469;28;20048;-72
2022/05/18 12:38:44;;;;;;;7.15;4.07;;;28.80;69.20;;;;;;5090397;28;20032;-73
2022/05/18 12:41:12;;;;;;;;;;;28.80;70.70;;;;;;5097911;28;20367;-73
2022/05/18 12:43:46;;;;;;;8.60;3.70;;;28.80;75.60;;;;;;5086783;28;19920;-74
2022/05/18 12:46:15;;;;;;;9.38;4.43;;;28.90;71.10;;;;;;5098790;28;20122;-73
2022/05/18 12:48:44;;;;;;;6.80;3.80;;;29.00;65.90;;;;;;5101733;28;20040;-72
2022/05/18 12:51:25;;;;;;;6.50;4.30;;;28.90;68.00;;;;;;5109261;28;20043;-73
2022/05/18 12:53:51;;;;;;;19.88;4.47;;;28.90;64.60;;;;;;5094243;28;20060;-68
2022/05/18 12:56:20;;;;;;;7.23;3.83;;;28.90;71.50;;;;;;5085566;28;20048;-68
2022/05/18 12:58:55;;;;;;;7.85;4.07;;;28.90;78.90;;;;;;5081485;28;20564;-67
2022/05/18 13:01:22;;;;;;;7.97;3.83;;;29.00;79.40;;;;;;5097460;28;20039;-68
2022/05/18 13:04:09;;;;;;;9.10;3.80;;;29.10;72.00;;;;;;5098460;28;20051;-68
2022/05/18 13:06:39;;;;;;;;;;;29.10;73.20;;;;;;5089539;28;20338;-68
2022/05/18 13:09:27;;;;;;;9.95;4.22;;;29.00;74.40;;;;;;5075722;28;19928;-67
2022/05/18 13:12:27;;;;;;;10.45;4.15;;;29.00;73.80;;;;;;5087721;28;20042;-65
2022/05/18 13:14:59;;;;;;;11.73;4.80;;;29.00;74.10;;;;;;5066233;28;20393;-68
2022/05/18 13:17:46;;;;;;;6.50;4.50;;;29.00;74.50;;;;;;5086548;28;20109;-68